• Join FlightAware (Why Join?)
  • Login
  • US Flag 
01:28AM EDT


 

Airport Tracker/Info


-or-


 

Live Flight TrackerFlight Track Log ✈ N6199B ✈ 09-Jul-2014 ✈ KFXE - KAPF

Flight Track Log - Related Links

Times and Time Zones

All times are in EDT time to prevent confusion due to time zone crossing. See the N6199B flight status page for this flight to view local times or setup timezone preferences in your user account.

Time Position Orientation Groundspeed Altitude Reporting Facility
EDT Latitude Longitude Course Direction KTS MPH feet Rate Location/Type
12:04PM 26.2047 -80.1828 262° West 80 92 400  Level Miami Center
12:05PM 26.2008 -80.2125 262° West 87 100 1,200 480 Climbing Miami Center
12:06PM 26.1981 -80.2161 229° Southwest 82 94 1,200 420 Level Miami Center
12:07PM 26.1908 -80.2397 251° West 77 89 1,700 600 Climbing Miami Center
12:08PM 26.1850 -80.2647 255° West 82 94 2,400 360 Climbing Miami Center
12:09PM 26.1772 -80.2897 251° West 97 112 2,500 60 Climbing Miami Center
12:09PM 26.1781 -80.2922 290° West 89 102 2,500 60 Level Miami Center
12:10PM 26.1792 -80.3222 272° West 99 114 2,600 60 Climbing Miami Center
12:10PM 26.1792 -80.3228 270° West 95 109 2,600 -120 Level Miami Center
12:11PM 26.1775 -80.3500 266° West 94 108 2,500 -120 Descending Miami Center
12:11PM 26.1783 -80.3575 277° West 95 109 2,500  Level Miami Center
12:12PM 26.1775 -80.3825 268° West 96 110 2,500  Level Miami Center
12:12PM 26.1775 -80.3872 270° West 95 109 2,500  Level Miami Center
12:13PM 26.1775 -80.4150 270° West 105 121 2,500  Level Miami Center
12:13PM 26.1789 -80.4183 295° West 100 115 2,500 -120 Level Miami Center
12:14PM 26.1758 -80.4428 262° West 98 113 2,400 -120 Descending Miami Center
12:14PM 26.1767 -80.4489 279° West 99 114 2,400  Level Miami Center
12:15PM 26.1739 -80.4728 263° West 97 112 2,400  Level Miami Center
12:15PM 26.1744 -80.4781 277° West 99 114 2,400  Level Miami Center
12:16PM 26.1742 -80.5006 269° West 94 108 2,400 60 Level Miami Center
12:16PM 26.1750 -80.5131 274° West 96 110 2,500 60 Climbing Miami Center
12:17PM 26.1742 -80.5331 267° West 99 114 2,500  Level Miami Center
12:17PM 26.1744 -80.5447 272° West 97 112 2,500  Level Miami Center
12:18PM 26.1742 -80.5633 269° West 95 109 2,500  Level Miami Center
12:18PM 26.1742 -80.5736 270° West 97 112 2,500  Level Miami Center
12:19PM 26.1744 -80.5914 271° West 96 110 2,500  Level Miami Center
12:19PM 26.1731 -80.6025 262° West 95 109 2,500  Level Miami Center
12:20PM 26.1744 -80.6239 274° West 97 112 2,500  Level Miami Center
12:20PM 26.1742 -80.6336 268° West 95 109 2,500  Level Miami Center
12:21PM 26.1725 -80.6539 265° West 98 113 2,500 -120 Level Miami Center
12:21PM 26.1733 -80.6622 276° West 95 109 2,400 -120 Descending Miami Center
12:22PM 26.1747 -80.6842 274° West 98 113 2,400 -120 Level Miami Center
12:22PM 26.1747 -80.6989 270° West 96 110 2,300  Descending Miami Center
12:23PM 26.1747 -80.7167 270° West 97 112 2,400 180 Climbing Miami Center
12:23PM 26.1736 -80.7297 265° West 96 110 2,500 60 Climbing Miami Center
12:24PM 26.1719 -80.7583 266° West 96 110 2,500  Level Miami Center
12:25PM 26.1706 -80.7894 267° West 96 110 2,500  Level Miami Center
12:26PM 26.1703 -80.8200 269° West 96 110 2,500  Level Miami Center
12:27PM 26.1678 -80.8550 265° West 95 109 2,500  Level Miami Center
12:29PM 26.1664 -80.8847 267° West 95 109 2,500  Level Miami Center
12:30PM 26.1669 -80.9133 271° West 94 108 2,500  Level Miami Center
12:31PM 26.1661 -80.9442 268° West 95 109 2,500  Level Miami Center
12:32PM 26.1650 -80.9767 268° West 105 121 2,500 -60 Level Miami Center
12:33PM 26.1656 -81.0108 271° West 94 108 2,400 -60 Descending Miami Center
12:34PM 26.1633 -81.0394 265° West 92 106 2,400  Level Miami Center
12:35PM 26.1628 -81.0714 269° West 93 107 2,500  Climbing Miami Center
12:36PM 26.1631 -81.0992 271° West 91 105 2,500  Level Miami Center
12:37PM 26.1608 -81.1311 266° West 95 109 2,500  Level Miami Center
12:38PM 26.1583 -81.1647 265° West 106 122 2,500 -60 Level Miami Center
12:39PM 26.1572 -81.1961 268° West 105 121 2,400  Descending Miami Center
12:40PM 26.1550 -81.2306 266° West 104 120 2,500  Climbing Miami Center
12:41PM 26.1542 -81.2614 268° West 102 117 2,500 -60 Level Miami Center
12:42PM 26.1519 -81.2961 266° West 103 119 2,400 -120 Descending Miami Center
12:44PM 26.1510 -81.3387 269° West  Level FlightAware Approximate
12:51PM 26.1500 -81.5350 270° West  Level FlightAware Approximate
12:52PM 26.1500 -81.5631 270° West  Level FlightAware Approximate